KAMG/AMG METAR and TAF weather

Enter ICAO airport designator
Station Type Date Time Source
KAMG METAR 2021/01/16 01:53 UTC NOAA

KAMG 160153Z AUTO 24003KT 10SM CLR 08/07 A2977 RMK AO2 SLP080 T00830072


Station Type Date Time Source
KAMG Decoded METAR 2021/01/16 01:53 UTC NOAA

ALMA BACON COUNTY AIRPORT, GA, United States (KAMG) 31-32N 82-30W 59M
Jan 15, 2021 - 08:53 PM EST / 2021.01.16 0153 UTC
Wind: from the WSW (240 degrees) at 3 MPH (3 KT):0
Visibility: 10 mile(s):0
Sky conditions: clear
Temperature: 46.9 F (8.3 C)
Dew Point: 45.0 F (7.2 C)
Relative Humidity: 92%
Pressure (altimeter): 29.77 in. Hg (1008 hPa)
ob: KAMG 160153Z AUTO 24003KT 10SM CLR 08/07 A2977 RMK AO2 SLP080 T00830072
cycle: 2

Station Type Date Time Source
KAMG TAF UTC NOAA

Error!

Example: see airport list